sensor_id;sensor_type;location;lat;lon;timestamp;P1;durP1;ratioP1;P2;durP2;ratioP2
16922;SDS011;8578;50.938;13.556;2023-07-29T00:02:13;2.30;;;1.43;;
16922;SDS011;8578;50.938;13.556;2023-07-29T00:04:40;2.83;;;1.30;;
16922;SDS011;8578;50.938;13.556;2023-07-29T00:07:09;1.30;;;1.20;;
16922;SDS011;8578;50.938;13.556;2023-07-29T00:09:37;2.03;;;1.37;;
16922;SDS011;8578;50.938;13.556;2023-07-29T00:12:04;3.03;;;1.30;;
16922;SDS011;8578;50.938;13.556;2023-07-29T00:14:32;2.40;;;1.50;;
16922;SDS011;8578;50.938;13.556;2023-07-29T00:16:59;1.50;;;1.40;;
16922;SDS011;8578;50.938;13.556;2023-07-29T00:19:27;3.83;;;1.50;;
16922;SDS011;8578;50.938;13.556;2023-07-29T00:21:55;1.70;;;1.60;;
16922;SDS011;8578;50.938;13.556;2023-07-29T00:24:23;4.77;;;1.70;;
16922;SDS011;8578;50.938;13.556;2023-07-29T00:26:51;1.83;;;1.40;;
16922;SDS011;8578;50.938;13.556;2023-07-29T00:29:20;3.33;;;1.40;;
16922;SDS011;8578;50.938;13.556;2023-07-29T00:31:47;2.37;;;1.43;;
16922;SDS011;8578;50.938;13.556;2023-07-29T00:34:15;2.00;;;1.80;;
16922;SDS011;8578;50.938;13.556;2023-07-29T00:36:45;2.47;;;1.60;;
16922;SDS011;8578;50.938;13.556;2023-07-29T00:39:13;2.13;;;1.43;;
16922;SDS011;8578;50.938;13.556;2023-07-29T00:41:42;1.87;;;1.60;;
16922;SDS011;8578;50.938;13.556;2023-07-29T00:44:09;1.50;;;1.40;;
16922;SDS011;8578;50.938;13.556;2023-07-29T00:46:37;1.47;;;1.37;;
16922;SDS011;8578;50.938;13.556;2023-07-29T00:49:05;2.90;;;1.47;;
16922;SDS011;8578;50.938;13.556;2023-07-29T00:51:33;1.57;;;1.20;;
16922;SDS011;8578;50.938;13.556;2023-07-29T00:54:00;2.30;;;1.40;;
16922;SDS011;8578;50.938;13.556;2023-07-29T00:56:28;1.80;;;1.33;;
16922;SDS011;8578;50.938;13.556;2023-07-29T00:58:57;2.00;;;1.43;;
16922;SDS011;8578;50.938;13.556;2023-07-29T01:01:28;2.93;;;1.63;;
16922;SDS011;8578;50.938;13.556;2023-07-29T01:03:56;3.80;;;1.67;;
16922;SDS011;8578;50.938;13.556;2023-07-29T01:06:26;1.40;;;1.30;;
16922;SDS011;8578;50.938;13.556;2023-07-29T01:08:58;2.23;;;1.37;;
16922;SDS011;8578;50.938;13.556;2023-07-29T01:11:33;1.60;;;1.40;;
16922;SDS011;8578;50.938;13.556;2023-07-29T01:14:05;3.87;;;1.70;;
16922;SDS011;8578;50.938;13.556;2023-07-29T01:16:37;2.20;;;1.30;;
16922;SDS011;8578;50.938;13.556;2023-07-29T01:19:06;1.40;;;1.30;;
16922;SDS011;8578;50.938;13.556;2023-07-29T01:21:36;2.97;;;1.60;;
16922;SDS011;8578;50.938;13.556;2023-07-29T01:24:05;1.87;;;1.50;;
16922;SDS011;8578;50.938;13.556;2023-07-29T01:26:33;1.80;;;1.33;;
16922;SDS011;8578;50.938;13.556;2023-07-29T01:29:02;2.27;;;1.23;;
16922;SDS011;8578;50.938;13.556;2023-07-29T01:31:30;2.90;;;1.50;;
16922;SDS011;8578;50.938;13.556;2023-07-29T01:34:01;1.30;;;1.20;;
16922;SDS011;8578;50.938;13.556;2023-07-29T01:36:32;2.13;;;1.17;;
16922;SDS011;8578;50.938;13.556;2023-07-29T01:39:02;2.30;;;1.30;;
16922;SDS011;8578;50.938;13.556;2023-07-29T01:41:31;2.00;;;1.20;;
16922;SDS011;8578;50.938;13.556;2023-07-29T01:43:59;2.33;;;1.40;;
16922;SDS011;8578;50.938;13.556;2023-07-29T01:46:29;1.40;;;1.10;;
16922;SDS011;8578;50.938;13.556;2023-07-29T01:48:59;1.27;;;1.17;;
16922;SDS011;8578;50.938;13.556;2023-07-29T01:51:27;3.07;;;1.50;;
16922;SDS011;8578;50.938;13.556;2023-07-29T01:53:54;1.70;;;1.20;;
16922;SDS011;8578;50.938;13.556;2023-07-29T01:56:22;2.70;;;1.30;;
16922;SDS011;8578;50.938;13.556;2023-07-29T01:58:55;1.70;;;1.20;;
16922;SDS011;8578;50.938;13.556;2023-07-29T02:01:23;3.63;;;1.23;;
16922;SDS011;8578;50.938;13.556;2023-07-29T02:03:51;1.20;;;1.10;;
16922;SDS011;8578;50.938;13.556;2023-07-29T02:06:22;1.20;;;1.00;;
16922;SDS011;8578;50.938;13.556;2023-07-29T02:08:50;4.40;;;1.40;;
16922;SDS011;8578;50.938;13.556;2023-07-29T02:11:18;1.47;;;1.10;;
16922;SDS011;8578;50.938;13.556;2023-07-29T02:13:47;1.17;;;1.07;;
16922;SDS011;8578;50.938;13.556;2023-07-29T02:16:15;1.17;;;1.07;;
16922;SDS011;8578;50.938;13.556;2023-07-29T02:18:43;2.80;;;1.03;;
16922;SDS011;8578;50.938;13.556;2023-07-29T02:21:10;1.43;;;1.20;;
16922;SDS011;8578;50.938;13.556;2023-07-29T02:23:38;1.20;;;1.10;;
16922;SDS011;8578;50.938;13.556;2023-07-29T02:26:06;2.43;;;1.10;;
16922;SDS011;8578;50.938;13.556;2023-07-29T02:28:33;0.80;;;0.77;;
16922;SDS011;8578;50.938;13.556;2023-07-29T02:31:13;1.90;;;1.10;;
16922;SDS011;8578;50.938;13.556;2023-07-29T02:33:42;1.20;;;0.90;;
16922;SDS011;8578;50.938;13.556;2023-07-29T02:36:11;3.17;;;1.00;;
16922;SDS011;8578;50.938;13.556;2023-07-29T02:38:39;1.70;;;1.07;;
16922;SDS011;8578;50.938;13.556;2023-07-29T02:41:07;1.40;;;1.10;;
16922;SDS011;8578;50.938;13.556;2023-07-29T02:43:35;1.50;;;1.07;;
16922;SDS011;8578;50.938;13.556;2023-07-29T02:46:03;0.97;;;0.97;;
16922;SDS011;8578;50.938;13.556;2023-07-29T02:48:30;1.30;;;1.20;;
16922;SDS011;8578;50.938;13.556;2023-07-29T02:50:59;1.50;;;1.07;;
16922;SDS011;8578;50.938;13.556;2023-07-29T02:53:27;1.20;;;1.10;;
16922;SDS011;8578;50.938;13.556;2023-07-29T02:55:54;1.00;;;0.90;;
16922;SDS011;8578;50.938;13.556;2023-07-29T02:58:22;4.17;;;1.10;;
16922;SDS011;8578;50.938;13.556;2023-07-29T03:00:49;1.83;;;1.30;;
16922;SDS011;8578;50.938;13.556;2023-07-29T03:03:17;1.20;;;1.10;;
16922;SDS011;8578;50.938;13.556;2023-07-29T03:05:46;1.37;;;1.20;;
16922;SDS011;8578;50.938;13.556;2023-07-29T03:08:14;1.50;;;1.00;;
16922;SDS011;8578;50.938;13.556;2023-07-29T03:10:42;2.40;;;1.00;;
16922;SDS011;8578;50.938;13.556;2023-07-29T03:13:09;0.70;;;0.70;;
16922;SDS011;8578;50.938;13.556;2023-07-29T03:15:37;1.13;;;0.90;;
16922;SDS011;8578;50.938;13.556;2023-07-29T03:18:05;1.10;;;0.90;;
16922;SDS011;8578;50.938;13.556;2023-07-29T03:20:32;1.30;;;0.90;;
16922;SDS011;8578;50.938;13.556;2023-07-29T03:23:00;0.80;;;0.73;;
16922;SDS011;8578;50.938;13.556;2023-07-29T03:25:29;0.97;;;0.87;;
16922;SDS011;8578;50.938;13.556;2023-07-29T03:27:56;1.00;;;0.90;;
16922;SDS011;8578;50.938;13.556;2023-07-29T03:30:24;2.40;;;0.97;;
16922;SDS011;8578;50.938;13.556;2023-07-29T03:32:52;1.80;;;0.87;;
16922;SDS011;8578;50.938;13.556;2023-07-29T03:35:19;2.17;;;0.77;;
16922;SDS011;8578;50.938;13.556;2023-07-29T03:37:47;0.60;;;0.60;;
16922;SDS011;8578;50.938;13.556;2023-07-29T03:40:14;1.30;;;1.00;;
16922;SDS011;8578;50.938;13.556;2023-07-29T03:42:44;1.73;;;0.90;;
16922;SDS011;8578;50.938;13.556;2023-07-29T03:45:11;1.60;;;0.70;;
16922;SDS011;8578;50.938;13.556;2023-07-29T03:47:39;1.27;;;0.90;;
16922;SDS011;8578;50.938;13.556;2023-07-29T03:50:07;0.87;;;0.80;;
16922;SDS011;8578;50.938;13.556;2023-07-29T03:52:34;0.80;;;0.80;;
16922;SDS011;8578;50.938;13.556;2023-07-29T03:55:02;0.87;;;0.80;;
16922;SDS011;8578;50.938;13.556;2023-07-29T03:57:30;2.00;;;0.80;;
16922;SDS011;8578;50.938;13.556;2023-07-29T03:59:58;0.83;;;0.80;;
16922;SDS011;8578;50.938;13.556;2023-07-29T04:02:27;0.87;;;0.80;;
16922;SDS011;8578;50.938;13.556;2023-07-29T04:04:55;2.20;;;0.80;;
16922;SDS011;8578;50.938;13.556;2023-07-29T04:07:22;1.57;;;0.90;;
16922;SDS011;8578;50.938;13.556;2023-07-29T04:09:50;1.40;;;0.80;;
16922;SDS011;8578;50.938;13.556;2023-07-29T04:12:18;2.00;;;0.80;;
16922;SDS011;8578;50.938;13.556;2023-07-29T04:14:47;0.83;;;0.60;;
16922;SDS011;8578;50.938;13.556;2023-07-29T04:17:17;1.13;;;0.67;;
16922;SDS011;8578;50.938;13.556;2023-07-29T04:19:45;0.80;;;0.70;;
16922;SDS011;8578;50.938;13.556;2023-07-29T04:22:12;0.70;;;0.70;;
16922;SDS011;8578;50.938;13.556;2023-07-29T04:24:40;1.80;;;0.90;;
16922;SDS011;8578;50.938;13.556;2023-07-29T04:27:07;2.17;;;0.80;;
16922;SDS011;8578;50.938;13.556;2023-07-29T04:29:35;2.20;;;0.80;;
16922;SDS011;8578;50.938;13.556;2023-07-29T04:32:03;0.80;;;0.77;;
16922;SDS011;8578;50.938;13.556;2023-07-29T04:34:32;2.43;;;0.60;;
16922;SDS011;8578;50.938;13.556;2023-07-29T04:37:00;1.80;;;0.80;;
16922;SDS011;8578;50.938;13.556;2023-07-29T04:39:27;0.97;;;0.83;;
16922;SDS011;8578;50.938;13.556;2023-07-29T04:41:55;1.03;;;0.70;;
16922;SDS011;8578;50.938;13.556;2023-07-29T04:44:23;0.80;;;0.80;;
16922;SDS011;8578;50.938;13.556;2023-07-29T04:46:51;0.97;;;0.70;;
16922;SDS011;8578;50.938;13.556;2023-07-29T04:49:18;1.33;;;0.70;;
16922;SDS011;8578;50.938;13.556;2023-07-29T04:51:47;0.70;;;0.70;;
16922;SDS011;8578;50.938;13.556;2023-07-29T04:54:14;1.23;;;0.77;;
16922;SDS011;8578;50.938;13.556;2023-07-29T04:56:42;0.70;;;0.70;;
16922;SDS011;8578;50.938;13.556;2023-07-29T04:59:09;0.80;;;0.80;;
16922;SDS011;8578;50.938;13.556;2023-07-29T05:01:39;1.80;;;0.90;;
16922;SDS011;8578;50.938;13.556;2023-07-29T05:04:08;2.60;;;0.80;;
16922;SDS011;8578;50.938;13.556;2023-07-29T05:06:36;0.50;;;0.50;;
16922;SDS011;8578;50.938;13.556;2023-07-29T05:09:15;0.70;;;0.70;;
16922;SDS011;8578;50.938;13.556;2023-07-29T05:11:44;1.00;;;0.60;;
16922;SDS011;8578;50.938;13.556;2023-07-29T05:14:12;2.00;;;0.70;;
16922;SDS011;8578;50.938;13.556;2023-07-29T05:16:41;0.87;;;0.83;;
16922;SDS011;8578;50.938;13.556;2023-07-29T05:19:08;0.80;;;0.80;;
16922;SDS011;8578;50.938;13.556;2023-07-29T05:21:36;2.63;;;0.70;;
16922;SDS011;8578;50.938;13.556;2023-07-29T05:24:04;1.93;;;0.70;;
16922;SDS011;8578;50.938;13.556;2023-07-29T05:26:33;3.03;;;0.80;;
16922;SDS011;8578;50.938;13.556;2023-07-29T05:29:01;0.80;;;0.80;;
16922;SDS011;8578;50.938;13.556;2023-07-29T05:31:30;1.00;;;0.90;;
16922;SDS011;8578;50.938;13.556;2023-07-29T05:33:58;1.43;;;0.80;;
16922;SDS011;8578;50.938;13.556;2023-07-29T05:36:26;1.10;;;0.80;;
16922;SDS011;8578;50.938;13.556;2023-07-29T05:38:53;1.17;;;0.90;;
16922;SDS011;8578;50.938;13.556;2023-07-29T05:41:21;1.20;;;0.90;;
16922;SDS011;8578;50.938;13.556;2023-07-29T05:43:50;0.60;;;0.60;;
16922;SDS011;8578;50.938;13.556;2023-07-29T05:46:17;0.90;;;0.80;;
16922;SDS011;8578;50.938;13.556;2023-07-29T05:48:45;1.10;;;0.80;;
16922;SDS011;8578;50.938;13.556;2023-07-29T05:51:12;1.10;;;0.80;;
16922;SDS011;8578;50.938;13.556;2023-07-29T05:53:40;2.27;;;0.83;;
16922;SDS011;8578;50.938;13.556;2023-07-29T05:56:08;1.73;;;0.70;;
16922;SDS011;8578;50.938;13.556;2023-07-29T05:58:36;1.67;;;0.80;;
16922;SDS011;8578;50.938;13.556;2023-07-29T06:01:07;1.40;;;0.70;;
16922;SDS011;8578;50.938;13.556;2023-07-29T06:03:35;1.10;;;0.80;;
16922;SDS011;8578;50.938;13.556;2023-07-29T06:06:02;1.10;;;0.77;;
16922;SDS011;8578;50.938;13.556;2023-07-29T06:08:30;0.80;;;0.80;;
16922;SDS011;8578;50.938;13.556;2023-07-29T06:11:00;0.87;;;0.87;;
16922;SDS011;8578;50.938;13.556;2023-07-29T06:13:28;1.73;;;0.80;;
16922;SDS011;8578;50.938;13.556;2023-07-29T06:15:56;2.37;;;0.80;;
16922;SDS011;8578;50.938;13.556;2023-07-29T06:18:25;2.07;;;0.70;;
16922;SDS011;8578;50.938;13.556;2023-07-29T06:20:53;0.70;;;0.60;;
16922;SDS011;8578;50.938;13.556;2023-07-29T06:23:21;1.20;;;0.90;;
16922;SDS011;8578;50.938;13.556;2023-07-29T06:25:48;1.90;;;0.90;;
16922;SDS011;8578;50.938;13.556;2023-07-29T06:28:16;1.13;;;0.87;;
16922;SDS011;8578;50.938;13.556;2023-07-29T06:30:44;1.10;;;1.00;;
16922;SDS011;8578;50.938;13.556;2023-07-29T06:33:11;1.00;;;0.90;;
16922;SDS011;8578;50.938;13.556;2023-07-29T06:35:40;1.13;;;0.90;;
16922;SDS011;8578;50.938;13.556;2023-07-29T06:38:08;1.10;;;1.00;;
16922;SDS011;8578;50.938;13.556;2023-07-29T06:40:35;3.23;;;0.90;;
16922;SDS011;8578;50.938;13.556;2023-07-29T06:43:03;2.47;;;0.80;;
16922;SDS011;8578;50.938;13.556;2023-07-29T06:45:31;0.90;;;0.80;;
16922;SDS011;8578;50.938;13.556;2023-07-29T06:47:58;0.90;;;0.70;;
16922;SDS011;8578;50.938;13.556;2023-07-29T06:50:26;0.87;;;0.73;;
16922;SDS011;8578;50.938;13.556;2023-07-29T06:52:54;0.90;;;0.80;;
16922;SDS011;8578;50.938;13.556;2023-07-29T06:55:22;0.70;;;0.70;;
16922;SDS011;8578;50.938;13.556;2023-07-29T06:57:49;1.10;;;0.93;;
16922;SDS011;8578;50.938;13.556;2023-07-29T07:00:17;0.93;;;0.80;;
16922;SDS011;8578;50.938;13.556;2023-07-29T07:02:45;3.43;;;1.00;;
16922;SDS011;8578;50.938;13.556;2023-07-29T07:05:12;1.33;;;1.10;;
16922;SDS011;8578;50.938;13.556;2023-07-29T07:07:40;0.60;;;0.60;;
16922;SDS011;8578;50.938;13.556;2023-07-29T07:10:09;0.70;;;0.70;;
16922;SDS011;8578;50.938;13.556;2023-07-29T07:12:37;1.03;;;0.87;;
16922;SDS011;8578;50.938;13.556;2023-07-29T07:15:05;0.60;;;0.60;;
16922;SDS011;8578;50.938;13.556;2023-07-29T07:17:33;2.43;;;0.80;;
16922;SDS011;8578;50.938;13.556;2023-07-29T07:20:00;1.73;;;0.80;;
16922;SDS011;8578;50.938;13.556;2023-07-29T07:22:28;0.90;;;0.70;;
16922;SDS011;8578;50.938;13.556;2023-07-29T07:24:55;0.60;;;0.60;;
16922;SDS011;8578;50.938;13.556;2023-07-29T07:27:24;0.63;;;0.63;;
16922;SDS011;8578;50.938;13.556;2023-07-29T07:29:51;1.67;;;0.70;;
16922;SDS011;8578;50.938;13.556;2023-07-29T07:32:19;0.40;;;0.40;;
16922;SDS011;8578;50.938;13.556;2023-07-29T07:34:46;0.30;;;0.30;;
16922;SDS011;8578;50.938;13.556;2023-07-29T07:37:14;1.13;;;0.57;;
16922;SDS011;8578;50.938;13.556;2023-07-29T07:39:41;2.43;;;1.23;;
16922;SDS011;8578;50.938;13.556;2023-07-29T07:42:09;1.67;;;0.50;;
16922;SDS011;8578;50.938;13.556;2023-07-29T07:44:37;0.80;;;0.60;;
16922;SDS011;8578;50.938;13.556;2023-07-29T07:47:05;0.93;;;0.60;;
16922;SDS011;8578;50.938;13.556;2023-07-29T07:49:33;0.67;;;0.40;;
16922;SDS011;8578;50.938;13.556;2023-07-29T07:52:00;0.67;;;0.60;;
16922;SDS011;8578;50.938;13.556;2023-07-29T07:54:28;0.30;;;0.30;;
16922;SDS011;8578;50.938;13.556;2023-07-29T07:56:55;0.40;;;0.40;;
16922;SDS011;8578;50.938;13.556;2023-07-29T07:59:23;0.70;;;0.60;;
16922;SDS011;8578;50.938;13.556;2023-07-29T08:01:51;0.50;;;0.50;;
16922;SDS011;8578;50.938;13.556;2023-07-29T08:04:19;0.60;;;0.50;;
16922;SDS011;8578;50.938;13.556;2023-07-29T08:06:47;0.40;;;0.33;;
16922;SDS011;8578;50.938;13.556;2023-07-29T08:09:14;2.00;;;0.50;;
16922;SDS011;8578;50.938;13.556;2023-07-29T08:11:42;0.63;;;0.50;;
16922;SDS011;8578;50.938;13.556;2023-07-29T08:14:10;0.77;;;0.57;;
16922;SDS011;8578;50.938;13.556;2023-07-29T08:16:37;0.80;;;0.50;;
16922;SDS011;8578;50.938;13.556;2023-07-29T08:19:06;0.40;;;0.40;;
16922;SDS011;8578;50.938;13.556;2023-07-29T08:21:36;0.57;;;0.57;;
16922;SDS011;8578;50.938;13.556;2023-07-29T08:24:03;3.93;;;0.80;;
16922;SDS011;8578;50.938;13.556;2023-07-29T08:26:31;0.80;;;0.60;;
16922;SDS011;8578;50.938;13.556;2023-07-29T08:28:58;0.70;;;0.70;;
16922;SDS011;8578;50.938;13.556;2023-07-29T08:31:26;1.77;;;0.60;;
16922;SDS011;8578;50.938;13.556;2023-07-29T08:33:53;0.70;;;0.70;;
16922;SDS011;8578;50.938;13.556;2023-07-29T08:36:22;0.70;;;0.70;;
16922;SDS011;8578;50.938;13.556;2023-07-29T08:38:49;0.70;;;0.70;;
16922;SDS011;8578;50.938;13.556;2023-07-29T08:41:19;1.97;;;0.70;;
16922;SDS011;8578;50.938;13.556;2023-07-29T08:43:50;1.87;;;0.80;;
16922;SDS011;8578;50.938;13.556;2023-07-29T08:46:19;0.80;;;0.77;;
16922;SDS011;8578;50.938;13.556;2023-07-29T08:48:47;0.70;;;0.70;;
16922;SDS011;8578;50.938;13.556;2023-07-29T08:51:15;2.07;;;0.80;;
16922;SDS011;8578;50.938;13.556;2023-07-29T08:53:44;1.67;;;0.70;;
16922;SDS011;8578;50.938;13.556;2023-07-29T08:56:11;0.90;;;0.77;;
16922;SDS011;8578;50.938;13.556;2023-07-29T08:58:39;1.20;;;0.70;;
16922;SDS011;8578;50.938;13.556;2023-07-29T09:01:07;0.97;;;0.70;;
16922;SDS011;8578;50.938;13.556;2023-07-29T09:03:34;0.80;;;0.70;;
16922;SDS011;8578;50.938;13.556;2023-07-29T09:06:02;0.70;;;0.70;;
16922;SDS011;8578;50.938;13.556;2023-07-29T09:08:29;0.60;;;0.60;;
16922;SDS011;8578;50.938;13.556;2023-07-29T09:10:58;0.73;;;0.60;;
16922;SDS011;8578;50.938;13.556;2023-07-29T09:13:26;1.93;;;0.80;;
16922;SDS011;8578;50.938;13.556;2023-07-29T09:15:54;1.07;;;0.90;;
16922;SDS011;8578;50.938;13.556;2023-07-29T09:18:21;0.77;;;0.73;;
16922;SDS011;8578;50.938;13.556;2023-07-29T09:20:49;2.20;;;0.87;;
16922;SDS011;8578;50.938;13.556;2023-07-29T09:23:17;2.27;;;0.70;;
16922;SDS011;8578;50.938;13.556;2023-07-29T09:25:45;0.97;;;0.63;;
16922;SDS011;8578;50.938;13.556;2023-07-29T09:28:15;0.67;;;0.57;;
16922;SDS011;8578;50.938;13.556;2023-07-29T09:30:44;1.53;;;0.90;;
16922;SDS011;8578;50.938;13.556;2023-07-29T09:33:12;0.70;;;0.70;;
16922;SDS011;8578;50.938;13.556;2023-07-29T09:35:40;2.10;;;0.90;;
16922;SDS011;8578;50.938;13.556;2023-07-29T09:38:08;1.20;;;1.00;;
16922;SDS011;8578;50.938;13.556;2023-07-29T09:40:35;1.00;;;0.90;;
16922;SDS011;8578;50.938;13.556;2023-07-29T09:43:04;1.13;;;0.83;;
16922;SDS011;8578;50.938;13.556;2023-07-29T09:45:34;1.40;;;1.30;;
16922;SDS011;8578;50.938;13.556;2023-07-29T09:48:02;9.17;;;1.67;;
16922;SDS011;8578;50.938;13.556;2023-07-29T09:50:31;3.27;;;1.30;;
16922;SDS011;8578;50.938;13.556;2023-07-29T09:52:59;2.80;;;1.03;;
16922;SDS011;8578;50.938;13.556;2023-07-29T09:55:26;3.00;;;1.30;;
16922;SDS011;8578;50.938;13.556;2023-07-29T09:57:55;4.77;;;1.40;;
16922;SDS011;8578;50.938;13.556;2023-07-29T10:00:23;1.33;;;1.20;;
16922;SDS011;8578;50.938;13.556;2023-07-29T10:02:52;0.80;;;0.80;;
16922;SDS011;8578;50.938;13.556;2023-07-29T10:05:21;4.10;;;0.97;;
16922;SDS011;8578;50.938;13.556;2023-07-29T10:07:49;1.20;;;1.10;;
16922;SDS011;8578;50.938;13.556;2023-07-29T10:10:17;1.80;;;0.90;;
16922;SDS011;8578;50.938;13.556;2023-07-29T10:12:45;3.37;;;1.00;;
16922;SDS011;8578;50.938;13.556;2023-07-29T10:15:13;1.87;;;1.00;;
16922;SDS011;8578;50.938;13.556;2023-07-29T10:17:41;2.47;;;0.90;;
16922;SDS011;8578;50.938;13.556;2023-07-29T10:20:10;3.17;;;1.10;;
16922;SDS011;8578;50.938;13.556;2023-07-29T10:22:38;0.80;;;0.70;;
16922;SDS011;8578;50.938;13.556;2023-07-29T10:25:07;1.03;;;0.83;;
16922;SDS011;8578;50.938;13.556;2023-07-29T10:27:42;3.00;;;0.70;;
16922;SDS011;8578;50.938;13.556;2023-07-29T10:30:10;0.77;;;0.67;;
16922;SDS011;8578;50.938;13.556;2023-07-29T10:32:38;6.20;;;0.70;;
16922;SDS011;8578;50.938;13.556;2023-07-29T10:35:09;0.60;;;0.50;;
16922;SDS011;8578;50.938;13.556;2023-07-29T10:37:37;1.03;;;0.77;;
16922;SDS011;8578;50.938;13.556;2023-07-29T10:40:06;0.87;;;0.70;;
16922;SDS011;8578;50.938;13.556;2023-07-29T10:42:34;2.13;;;0.60;;
16922;SDS011;8578;50.938;13.556;2023-07-29T10:45:16;2.50;;;0.63;;
16922;SDS011;8578;50.938;13.556;2023-07-29T10:47:44;0.83;;;0.60;;
16922;SDS011;8578;50.938;13.556;2023-07-29T10:50:18;0.60;;;0.57;;
16922;SDS011;8578;50.938;13.556;2023-07-29T10:52:48;0.67;;;0.60;;
16922;SDS011;8578;50.938;13.556;2023-07-29T10:55:23;1.03;;;0.50;;
16922;SDS011;8578;50.938;13.556;2023-07-29T10:57:51;1.10;;;0.70;;
16922;SDS011;8578;50.938;13.556;2023-07-29T11:00:19;0.40;;;0.40;;
16922;SDS011;8578;50.938;13.556;2023-07-29T11:02:56;1.13;;;0.50;;
16922;SDS011;8578;50.938;13.556;2023-07-29T11:05:25;1.13;;;0.63;;
16922;SDS011;8578;50.938;13.556;2023-07-29T11:07:52;0.50;;;0.50;;
16922;SDS011;8578;50.938;13.556;2023-07-29T11:10:20;0.87;;;0.60;;
16922;SDS011;8578;50.938;13.556;2023-07-29T11:12:48;1.83;;;0.63;;
16922;SDS011;8578;50.938;13.556;2023-07-29T11:15:18;0.83;;;0.70;;
16922;SDS011;8578;50.938;13.556;2023-07-29T11:17:46;2.03;;;0.70;;
16922;SDS011;8578;50.938;13.556;2023-07-29T11:20:14;0.77;;;0.57;;
16922;SDS011;8578;50.938;13.556;2023-07-29T11:22:43;3.80;;;2.00;;
16922;SDS011;8578;50.938;13.556;2023-07-29T11:25:11;1.63;;;0.90;;
16922;SDS011;8578;50.938;13.556;2023-07-29T11:27:39;1.37;;;0.80;;
16922;SDS011;8578;50.938;13.556;2023-07-29T11:30:08;1.30;;;0.70;;
16922;SDS011;8578;50.938;13.556;2023-07-29T11:32:36;6.33;;;0.80;;
16922;SDS011;8578;50.938;13.556;2023-07-29T11:35:05;1.00;;;0.80;;
16922;SDS011;8578;50.938;13.556;2023-07-29T11:37:33;0.73;;;0.70;;
16922;SDS011;8578;50.938;13.556;2023-07-29T11:40:03;0.80;;;0.70;;
16922;SDS011;8578;50.938;13.556;2023-07-29T11:42:32;1.07;;;0.90;;
16922;SDS011;8578;50.938;13.556;2023-07-29T11:45:00;0.70;;;0.57;;
16922;SDS011;8578;50.938;13.556;2023-07-29T11:47:28;0.93;;;0.57;;
16922;SDS011;8578;50.938;13.556;2023-07-29T11:49:58;0.67;;;0.47;;
16922;SDS011;8578;50.938;13.556;2023-07-29T11:52:25;0.67;;;0.67;;
16922;SDS011;8578;50.938;13.556;2023-07-29T11:54:53;0.70;;;0.50;;
16922;SDS011;8578;50.938;13.556;2023-07-29T11:57:21;0.60;;;0.50;;
16922;SDS011;8578;50.938;13.556;2023-07-29T11:59:50;0.57;;;0.43;;
16922;SDS011;8578;50.938;13.556;2023-07-29T12:02:18;1.03;;;0.50;;
16922;SDS011;8578;50.938;13.556;2023-07-29T12:04:46;0.50;;;0.50;;
16922;SDS011;8578;50.938;13.556;2023-07-29T12:07:14;0.50;;;0.50;;
16922;SDS011;8578;50.938;13.556;2023-07-29T12:09:42;1.00;;;0.60;;
16922;SDS011;8578;50.938;13.556;2023-07-29T12:12:10;0.70;;;0.50;;
16922;SDS011;8578;50.938;13.556;2023-07-29T12:14:39;0.50;;;0.50;;
16922;SDS011;8578;50.938;13.556;2023-07-29T12:17:10;1.00;;;0.50;;
16922;SDS011;8578;50.938;13.556;2023-07-29T12:19:38;0.47;;;0.47;;
16922;SDS011;8578;50.938;13.556;2023-07-29T12:22:07;0.90;;;0.63;;
16922;SDS011;8578;50.938;13.556;2023-07-29T12:24:35;1.17;;;0.70;;
16922;SDS011;8578;50.938;13.556;2023-07-29T12:27:03;0.67;;;0.50;;
16922;SDS011;8578;50.938;13.556;2023-07-29T12:29:30;0.60;;;0.60;;
16922;SDS011;8578;50.938;13.556;2023-07-29T12:32:00;0.93;;;0.60;;
16922;SDS011;8578;50.938;13.556;2023-07-29T12:34:28;1.80;;;0.60;;
16922;SDS011;8578;50.938;13.556;2023-07-29T12:36:57;0.60;;;0.50;;
16922;SDS011;8578;50.938;13.556;2023-07-29T12:39:25;0.50;;;0.50;;
16922;SDS011;8578;50.938;13.556;2023-07-29T12:41:54;1.87;;;0.67;;
16922;SDS011;8578;50.938;13.556;2023-07-29T12:44:22;0.80;;;0.60;;
16922;SDS011;8578;50.938;13.556;2023-07-29T12:46:50;0.90;;;0.50;;
16922;SDS011;8578;50.938;13.556;2023-07-29T12:49:19;1.20;;;0.70;;
16922;SDS011;8578;50.938;13.556;2023-07-29T12:51:46;1.83;;;0.53;;
16922;SDS011;8578;50.938;13.556;2023-07-29T12:54:14;0.50;;;0.50;;
16922;SDS011;8578;50.938;13.556;2023-07-29T12:56:41;0.50;;;0.50;;
16922;SDS011;8578;50.938;13.556;2023-07-29T12:59:09;0.70;;;0.50;;
16922;SDS011;8578;50.938;13.556;2023-07-29T13:01:36;0.77;;;0.50;;
16922;SDS011;8578;50.938;13.556;2023-07-29T13:04:04;0.50;;;0.50;;
16922;SDS011;8578;50.938;13.556;2023-07-29T13:06:33;0.77;;;0.70;;
16922;SDS011;8578;50.938;13.556;2023-07-29T13:09:00;2.40;;;0.50;;
16922;SDS011;8578;50.938;13.556;2023-07-29T13:11:28;1.87;;;0.60;;
16922;SDS011;8578;50.938;13.556;2023-07-29T13:13:55;0.73;;;0.60;;
16922;SDS011;8578;50.938;13.556;2023-07-29T13:16:23;1.13;;;0.67;;
16922;SDS011;8578;50.938;13.556;2023-07-29T13:18:51;0.63;;;0.63;;
16922;SDS011;8578;50.938;13.556;2023-07-29T13:21:18;0.50;;;0.50;;
16922;SDS011;8578;50.938;13.556;2023-07-29T13:23:47;0.43;;;0.43;;
16922;SDS011;8578;50.938;13.556;2023-07-29T13:26:14;2.27;;;0.70;;
16922;SDS011;8578;50.938;13.556;2023-07-29T13:28:42;0.57;;;0.40;;
16922;SDS011;8578;50.938;13.556;2023-07-29T13:31:09;0.80;;;0.67;;
16922;SDS011;8578;50.938;13.556;2023-07-29T13:33:37;0.90;;;0.77;;
16922;SDS011;8578;50.938;13.556;2023-07-29T13:36:05;0.40;;;0.40;;
16922;SDS011;8578;50.938;13.556;2023-07-29T13:38:34;0.50;;;0.50;;
16922;SDS011;8578;50.938;13.556;2023-07-29T13:41:03;0.60;;;0.53;;
16922;SDS011;8578;50.938;13.556;2023-07-29T13:43:31;0.63;;;0.50;;
16922;SDS011;8578;50.938;13.556;2023-07-29T13:45:58;0.57;;;0.50;;
16922;SDS011;8578;50.938;13.556;2023-07-29T13:48:26;0.77;;;0.40;;
16922;SDS011;8578;50.938;13.556;2023-07-29T13:50:53;2.77;;;0.60;;
16922;SDS011;8578;50.938;13.556;2023-07-29T13:53:21;0.50;;;0.50;;
16922;SDS011;8578;50.938;13.556;2023-07-29T13:55:48;0.60;;;0.40;;
16922;SDS011;8578;50.938;13.556;2023-07-29T13:58:17;0.60;;;0.47;;
16922;SDS011;8578;50.938;13.556;2023-07-29T14:00:44;1.00;;;0.60;;
16922;SDS011;8578;50.938;13.556;2023-07-29T14:03:12;0.87;;;0.50;;
16922;SDS011;8578;50.938;13.556;2023-07-29T14:05:39;0.60;;;0.60;;
16922;SDS011;8578;50.938;13.556;2023-07-29T14:08:07;0.50;;;0.50;;
16922;SDS011;8578;50.938;13.556;2023-07-29T14:10:34;0.73;;;0.60;;
16922;SDS011;8578;50.938;13.556;2023-07-29T14:13:02;0.83;;;0.63;;
16922;SDS011;8578;50.938;13.556;2023-07-29T14:15:31;0.87;;;0.63;;
16922;SDS011;8578;50.938;13.556;2023-07-29T14:17:59;0.70;;;0.70;;
16922;SDS011;8578;50.938;13.556;2023-07-29T14:20:28;1.23;;;0.60;;
16922;SDS011;8578;50.938;13.556;2023-07-29T14:22:56;1.43;;;0.57;;
16922;SDS011;8578;50.938;13.556;2023-07-29T14:25:23;1.47;;;0.70;;
16922;SDS011;8578;50.938;13.556;2023-07-29T14:27:51;2.53;;;0.77;;
16922;SDS011;8578;50.938;13.556;2023-07-29T14:30:18;1.07;;;0.70;;
16922;SDS011;8578;50.938;13.556;2023-07-29T14:32:48;1.33;;;0.90;;
16922;SDS011;8578;50.938;13.556;2023-07-29T14:35:15;2.00;;;0.63;;
16922;SDS011;8578;50.938;13.556;2023-07-29T14:37:43;2.90;;;0.50;;
16922;SDS011;8578;50.938;13.556;2023-07-29T14:40:10;0.50;;;0.40;;
16922;SDS011;8578;50.938;13.556;2023-07-29T14:42:38;0.90;;;0.50;;
16922;SDS011;8578;50.938;13.556;2023-07-29T14:45:06;1.27;;;0.60;;
16922;SDS011;8578;50.938;13.556;2023-07-29T14:47:34;0.70;;;0.43;;
16922;SDS011;8578;50.938;13.556;2023-07-29T14:50:03;0.97;;;0.50;;
16922;SDS011;8578;50.938;13.556;2023-07-29T14:52:31;0.50;;;0.50;;
16922;SDS011;8578;50.938;13.556;2023-07-29T14:54:58;0.50;;;0.50;;